High Tide — D5AA7 — position and weather

sailwx.info

Track history (hours):
 
Tides and Currents Weather Stations Pressure Air Temp Water Temp Dewpoint Dewpoint Depression Visibility Wind Speed Wind Dir Waves Ship Positions

High Tide

Last reported at 2016-Jul-14 16:29 UTC. Time now 2016-Jul-27 17:17 UTC.
Position N 01°15' E 104°00'.
Warning: this ship's position is 13 days out of date.

Length 183 m; draft 11.1 m.

Type: Tanker. MMSI: 636015337.

Date/timePositionNaut miles runAvg speedWind from/ knotsBaromVisibWave heightAir tempDewpointWater temp
2016-Jul-14 16:29N 01°15' E 104°00'2 1.2
2016-Jul-14 14:27N 01°17' E 103°59'0 0.0
2016-Jul-14 13:32N 01°17' E 103°59'0 0.0
2016-Jul-14 12:14N 01°17' E 103°59'0 0.1
2016-Jul-14 10:20N 01°17' E 103°59'0 0.0
2016-Jul-14 09:27N 01°17' E 103°59'0 0.0
2016-Jul-14 07:26N 01°17' E 103°59'0 0.1
2016-Jul-14 06:20N 01°17' E 103°59'3 3.5
2016-Jul-14 05:33N 01°15' E 103°57'4 3.7
2016-Jul-14 04:33N 01°13' E 103°54'5 4.7
2016-Jul-14 03:32N 01°11' E 103°50'86 9.2
2016-Jul-13 18:11N 01°46' E 102°31'913.4
2016-Jul-13 17:33N 01°50' E 102°23'  
Track history (hours):
 
Tides and Currents Weather Stations Pressure Air Temp Water Temp Dewpoint Dewpoint Depression Visibility Wind Speed Wind Dir Waves Ship Positions

High Tide

Last reported at 2016-Jul-14 16:29 UTC. Time now 2016-Jul-27 17:17 UTC.
Position N 01°15' E 104°00'.
Warning: this ship's position is 13 days out of date.

Length 183 m; draft 11.1 m.

Type: Tanker. MMSI: 636015337.

Date/timePositionNaut miles runAvg speedWind from/ knotsBaromVisibWave heightAir tempDewpointWater temp
2016-Jul-14 16:29N 01°15' E 104°00'2 1.2
2016-Jul-14 14:27N 01°17' E 103°59'0 0.0
2016-Jul-14 13:32N 01°17' E 103°59'0 0.0
2016-Jul-14 12:14N 01°17' E 103°59'0 0.1
2016-Jul-14 10:20N 01°17' E 103°59'0 0.0
2016-Jul-14 09:27N 01°17' E 103°59'0 0.0
2016-Jul-14 07:26N 01°17' E 103°59'0 0.1
2016-Jul-14 06:20N 01°17' E 103°59'3 3.5
2016-Jul-14 05:33N 01°15' E 103°57'4 3.7
2016-Jul-14 04:33N 01°13' E 103°54'5 4.7
2016-Jul-14 03:32N 01°11' E 103°50'86 9.2
2016-Jul-13 18:11N 01°46' E 102°31'913.4
2016-Jul-13 17:33N 01°50' E 102°23'  

Dump ship's entire track history